Time;durP1;ratioP1;P1;durP2;ratioP2;P2;SDS_P1;SDS_P2;PMS_P1;PMS_P2;Temp;Humidity;BMP_temperature;BMP_pressure;BME280_temperature;BME280_humidity;BME280_pressure;Samples;Min_cycle;Max_cycle;Signal;HPM_P1;HPM_P2
2021/10/10 00:01:46;;;;;;;11.20;4.97;;;;;;;;;;5053292;28;20388;-53
2021/10/10 00:04:12;;;;;;;22.92;5.70;;;;;;;;;;5054154;28;20025;-53
2021/10/10 00:06:38;;;;;;;11.05;4.95;;;;;;;;;;5054775;28;20033;-53
2021/10/10 00:09:04;;;;;;;16.05;5.15;;;;;;;;;;5054726;28;20241;-53
2021/10/10 00:11:30;;;;;;;6.30;4.28;;;;;;;;;;5053748;28;20063;-53
2021/10/10 00:13:56;;;;;;;11.70;4.93;;;;;;;;;;5054158;28;20029;-53
2021/10/10 00:16:22;;;;;;;10.68;4.70;;;;;;;;;;5054601;28;20112;-54
2021/10/10 00:18:49;;;;;;;13.25;4.53;;;;;;;;;;5054386;28;20109;-53
2021/10/10 00:21:15;;;;;;;12.60;4.82;;;;;;;;;;5054116;28;20516;-53
2021/10/10 00:23:41;;;;;;;8.65;4.47;;;;;;;;;;5053422;28;20362;-53
2021/10/10 00:26:07;;;;;;;11.43;4.70;;;;;;;;;;5054163;28;20017;-53
2021/10/10 00:28:33;;;;;;;11.40;5.18;;;;;;;;;;5054078;28;20367;-53
2021/10/10 00:30:59;;;;;;;9.15;4.75;;;;;;;;;;5053981;28;20025;-53
2021/10/10 00:33:26;;;;;;;11.60;4.93;;;;;;;;;;5054073;28;20033;-53
2021/10/10 00:35:52;;;;;;;10.80;4.93;;;;;;;;;;5053647;28;20439;-53
2021/10/10 00:38:18;;;;;;;8.48;4.28;;;;;;;;;;5053737;28;20546;-53
2021/10/10 00:40:44;;;;;;;13.32;4.40;;;;;;;;;;5053725;28;20025;-53
2021/10/10 00:43:11;;;;;;;9.80;5.07;;;;;;;;;;5054120;28;20428;-53
2021/10/10 00:45:37;;;;;;;21.38;5.00;;;;;;;;;;5053414;28;20100;-53
2021/10/10 00:48:04;;;;;;;12.05;4.55;;;;;;;;;;5054000;28;20025;-53
2021/10/10 00:50:30;;;;;;;8.73;4.32;;;;;;;;;;5053830;28;20108;-53
2021/10/10 00:52:57;;;;;;;11.88;4.50;;;;;;;;;;5053571;28;20064;-53
2021/10/10 00:55:23;;;;;;;7.10;3.97;;;;;;;;;;5052547;28;20127;-53
2021/10/10 00:57:51;;;;;;;11.25;3.97;;;;;;;;;;5053955;28;20021;-53
2021/10/10 01:00:18;;;;;;;11.50;4.90;;;;;;;;;;5053126;28;20428;-53
2021/10/10 01:02:44;;;;;;;12.40;5.88;;;;;;;;;;5052600;28;20045;-53
2021/10/10 01:05:12;;;;;;;9.27;4.57;;;;;;;;;;5052771;28;20071;-53
2021/10/10 01:07:38;;;;;;;8.25;4.78;;;;;;;;;;5053760;28;20032;-53
2021/10/10 01:10:05;;;;;;;14.63;5.70;;;;;;;;;;5053536;28;20048;-53
2021/10/10 01:12:32;;;;;;;8.93;3.92;;;;;;;;;;5053541;28;20033;-53
2021/10/10 01:14:59;;;;;;;8.90;4.75;;;;;;;;;;5052713;28;20397;-54
2021/10/10 01:17:25;;;;;;;12.55;4.75;;;;;;;;;;5053635;28;20175;-53
2021/10/10 01:19:52;;;;;;;10.93;4.55;;;;;;;;;;5052964;28;20438;-53
2021/10/10 01:22:18;;;;;;;10.73;5.05;;;;;;;;;;5053108;28;20028;-53
2021/10/10 01:24:44;;;;;;;7.30;4.63;;;;;;;;;;5052523;28;20025;-53
2021/10/10 01:27:10;;;;;;;10.88;4.85;;;;;;;;;;5052914;28;20355;-53
2021/10/10 01:29:36;;;;;;;14.40;5.05;;;;;;;;;;5052692;28;20033;-53
2021/10/10 01:32:02;;;;;;;12.95;4.60;;;;;;;;;;5052937;28;20028;-53
2021/10/10 01:34:28;;;;;;;11.40;5.35;;;;;;;;;;5052512;28;20418;-53
2021/10/10 01:36:54;;;;;;;16.83;5.30;;;;;;;;;;5052586;28;20328;-53
2021/10/10 01:39:20;;;;;;;13.43;4.90;;;;;;;;;;5052937;28;20442;-53
2021/10/10 01:41:46;;;;;;;12.38;4.55;;;;;;;;;;5048285;28;20028;-53
2021/10/10 01:44:13;;;;;;;11.85;5.45;;;;;;;;;;5032256;28;20036;-53
2021/10/10 01:46:39;;;;;;;13.02;4.85;;;;;;;;;;5032795;28;20036;-53
2021/10/10 01:49:05;;;;;;;7.97;4.25;;;;;;;;;;5032727;28;20033;-53
2021/10/10 01:51:31;;;;;;;16.58;5.55;;;;;;;;;;5032795;28;20082;-53
2021/10/10 01:53:59;;;;;;;13.88;5.68;;;;;;;;;;5032240;28;20033;-53
2021/10/10 01:56:25;;;;;;;14.55;5.28;;;;;;;;;;5032454;28;20475;-53
2021/10/10 01:58:51;;;;;;;16.13;5.43;;;;;;;;;;5033111;28;20033;-53
2021/10/10 02:01:17;;;;;;;14.25;6.47;;;;;;;;;;5031631;28;20190;-53
2021/10/10 02:03:43;;;;;;;15.80;6.82;;;;;;;;;;5032107;28;20029;-52
2021/10/10 02:06:09;;;;;;;15.70;5.32;;;;;;;;;;5032536;28;20032;-53
2021/10/10 02:08:35;;;;;;;15.13;6.18;;;;;;;;;;5027016;28;20433;-53
2021/10/10 02:11:01;;;;;;;12.20;5.45;;;;;;;;;;5032933;28;20025;-53
2021/10/10 02:13:27;;;;;;;16.48;6.15;;;;;;;;;;5032243;28;20034;-53
2021/10/10 02:15:53;;;;;;;15.55;5.88;;;;;;;;;;5032657;28;20097;-53
2021/10/10 02:18:19;;;;;;;13.32;6.00;;;;;;;;;;5032660;28;20029;-52
2021/10/10 02:20:45;;;;;;;11.10;5.20;;;;;;;;;;5033103;28;20029;-53
2021/10/10 02:23:11;;;;;;;17.02;6.03;;;;;;;;;;5032590;28;20100;-53
2021/10/10 02:25:37;;;;;;;11.30;5.78;;;;;;;;;;5031526;28;20022;-53
2021/10/10 02:28:03;;;;;;;12.82;5.43;;;;;;;;;;5032930;28;20439;-53
2021/10/10 02:30:29;;;;;;;12.20;5.57;;;;;;;;;;5032049;28;20072;-53
2021/10/10 02:32:55;;;;;;;18.17;6.28;;;;;;;;;;5032752;28;20167;-53
2021/10/10 02:35:21;;;;;;;15.07;6.28;;;;;;;;;;5031727;28;20096;-53
2021/10/10 02:37:47;;;;;;;13.13;5.25;;;;;;;;;;5032341;28;20621;-53
2021/10/10 02:40:13;;;;;;;20.02;6.15;;;;;;;;;;5032446;28;20092;-53
2021/10/10 02:42:40;;;;;;;10.07;4.60;;;;;;;;;;5035192;28;20039;-53
2021/10/10 02:45:06;;;;;;;9.10;5.10;;;;;;;;;;5035537;28;20045;-53
2021/10/10 02:47:32;;;;;;;17.45;5.70;;;;;;;;;;5036508;28;20026;-53
2021/10/10 02:49:58;;;;;;;10.60;5.07;;;;;;;;;;5035926;28;20451;-53
2021/10/10 02:52:25;;;;;;;10.63;4.93;;;;;;;;;;5035849;28;20037;-54
2021/10/10 02:54:51;;;;;;;13.07;5.63;;;;;;;;;;5034927;28;20332;-54
2021/10/10 02:57:18;;;;;;;18.77;6.25;;;;;;;;;;5036042;28;20083;-53
2021/10/10 02:59:43;;;;;;;14.77;6.55;;;;;;;;;;5035863;28;20455;-53
2021/10/10 03:02:09;;;;;;;13.25;6.43;;;;;;;;;;5033679;28;20018;-53
2021/10/10 03:04:36;;;;;;;14.18;5.93;;;;;;;;;;5035444;28;20520;-53
2021/10/10 03:07:02;;;;;;;16.00;6.47;;;;;;;;;;5036045;28;20029;-52
2021/10/10 03:09:28;;;;;;;14.88;5.15;;;;;;;;;;5035371;28;20025;-53
2021/10/10 03:11:54;;;;;;;10.18;5.15;;;;;;;;;;5035628;28;20030;-53
2021/10/10 03:14:20;;;;;;;15.20;5.88;;;;;;;;;;5035211;28;20113;-53
2021/10/10 03:16:46;;;;;;;14.77;5.70;;;;;;;;;;5035678;28;20024;-53
2021/10/10 03:19:12;;;;;;;15.32;6.50;;;;;;;;;;5035879;28;20029;-53
2021/10/10 03:21:38;;;;;;;9.15;5.30;;;;;;;;;;5035471;28;20033;-53
2021/10/10 03:24:05;;;;;;;12.55;5.25;;;;;;;;;;5034726;28;20033;-53
2021/10/10 03:26:31;;;;;;;12.85;5.20;;;;;;;;;;5035082;28;20352;-53
2021/10/10 03:28:57;;;;;;;15.57;6.32;;;;;;;;;;5035785;28;20045;-53
2021/10/10 03:31:23;;;;;;;9.27;4.47;;;;;;;;;;5034945;28;20451;-53
2021/10/10 03:33:49;;;;;;;15.88;5.82;;;;;;;;;;5034746;28;20040;-53
2021/10/10 03:36:15;;;;;;;11.60;5.50;;;;;;;;;;5035258;28;20032;-54
2021/10/10 03:38:41;;;;;;;23.00;6.53;;;;;;;;;;5034966;28;20025;-53
2021/10/10 03:41:07;;;;;;;14.02;5.45;;;;;;;;;;5034958;28;20021;-53
2021/10/10 03:43:33;;;;;;;14.20;6.32;;;;;;;;;;5034695;28;20032;-53
2021/10/10 03:45:59;;;;;;;14.90;5.72;;;;;;;;;;5034823;28;20022;-53
2021/10/10 03:48:25;;;;;;;13.98;6.03;;;;;;;;;;5035149;28;20025;-54
2021/10/10 03:50:51;;;;;;;11.55;6.03;;;;;;;;;;5035131;28;20036;-53
2021/10/10 03:53:18;;;;;;;18.52;6.28;;;;;;;;;;5033628;28;20092;-53
2021/10/10 03:55:44;;;;;;;12.52;5.60;;;;;;;;;;5034079;28;20469;-53
2021/10/10 03:58:14;;;;;;;12.18;4.80;;;;;;;;;;5035188;28;20021;-53
2021/10/10 04:00:40;;;;;;;16.73;6.00;;;;;;;;;;5035281;28;20329;-53
2021/10/10 04:03:07;;;;;;;17.05;5.75;;;;;;;;;;5032777;28;20033;-53
2021/10/10 04:08:00;;;;;;;10.95;5.72;;;;;;;;;;5034860;28;20033;-53
2021/10/10 04:10:26;;;;;;;16.73;6.18;;;;;;;;;;5034883;28;20021;-53
2021/10/10 04:12:52;;;;;;;15.63;5.80;;;;;;;;;;5034601;28;20121;-53
2021/10/10 04:15:18;;;;;;;14.70;6.00;;;;;;;;;;5034227;28;20053;-53
2021/10/10 04:17:45;;;;;;;14.18;5.35;;;;;;;;;;5033795;28;20239;-53
2021/10/10 04:20:12;;;;;;;10.65;5.65;;;;;;;;;;5034609;28;20359;-53
2021/10/10 04:22:38;;;;;;;9.27;5.70;;;;;;;;;;5034651;28;20029;-53
2021/10/10 04:25:05;;;;;;;12.30;5.38;;;;;;;;;;5033929;28;20108;-53
2021/10/10 04:27:33;;;;;;;12.10;5.40;;;;;;;;;;5034375;28;20040;-53
2021/10/10 04:29:59;;;;;;;12.70;5.45;;;;;;;;;;5034273;28;20033;-53
2021/10/10 04:32:25;;;;;;;13.57;5.30;;;;;;;;;;5034344;28;20033;-53
2021/10/10 04:34:51;;;;;;;12.70;6.25;;;;;;;;;;5033632;28;20527;-53
2021/10/10 04:37:17;;;;;;;16.50;6.10;;;;;;;;;;5032866;28;20079;-53
2021/10/10 04:39:43;;;;;;;16.25;6.07;;;;;;;;;;5034243;28;20108;-53
2021/10/10 04:42:09;;;;;;;12.88;5.55;;;;;;;;;;5034134;28;20047;-53
2021/10/10 04:44:38;;;;;;;14.95;6.60;;;;;;;;;;5033063;28;20079;-53
2021/10/10 04:47:05;;;;;;;23.30;6.30;;;;;;;;;;5033704;28;20128;-53
2021/10/10 04:49:31;;;;;;;15.18;5.40;;;;;;;;;;5033826;28;20026;-53
2021/10/10 04:51:57;;;;;;;9.43;5.88;;;;;;;;;;5033948;28;20026;-53
2021/10/10 04:54:23;;;;;;;13.15;6.15;;;;;;;;;;5033157;28;20037;-53
2021/10/10 04:56:49;;;;;;;17.08;5.55;;;;;;;;;;5033706;28;20496;-53
2021/10/10 04:59:15;;;;;;;12.02;5.38;;;;;;;;;;5033646;28;20030;-53
2021/10/10 05:01:41;;;;;;;12.70;5.53;;;;;;;;;;5031690;28;20032;-53
2021/10/10 05:04:07;;;;;;;12.57;5.47;;;;;;;;;;5032701;28;20021;-53
2021/10/10 05:06:33;;;;;;;13.25;6.53;;;;;;;;;;5034037;28;20029;-53
2021/10/10 05:08:59;;;;;;;15.23;6.57;;;;;;;;;;5033840;28;20013;-53
2021/10/10 05:11:25;;;;;;;13.05;6.18;;;;;;;;;;5033450;28;20471;-53
2021/10/10 05:13:51;;;;;;;10.93;6.07;;;;;;;;;;5032733;28;20082;-53
2021/10/10 05:16:17;;;;;;;14.57;6.90;;;;;;;;;;5033619;28;20029;-53
2021/10/10 05:18:43;;;;;;;14.60;6.30;;;;;;;;;;5033558;28;20098;-53
2021/10/10 05:21:09;;;;;;;10.02;5.95;;;;;;;;;;5033208;28;20104;-53
2021/10/10 05:23:35;;;;;;;15.02;5.82;;;;;;;;;;5032837;28;20026;-53
2021/10/10 05:26:01;;;;;;;12.13;6.18;;;;;;;;;;5032972;28;20431;-53
2021/10/10 05:28:27;;;;;;;19.25;7.07;;;;;;;;;;5033391;28;20029;-53
2021/10/10 05:30:53;;;;;;;13.20;5.68;;;;;;;;;;5033036;28;20522;-53
2021/10/10 05:33:20;;;;;;;20.73;6.82;;;;;;;;;;5032997;28;20041;-53
2021/10/10 05:35:47;;;;;;;16.27;5.82;;;;;;;;;;5032029;28;20460;-53
2021/10/10 05:38:13;;;;;;;21.67;7.65;;;;;;;;;;5033223;28;20096;-53
2021/10/10 05:40:39;;;;;;;25.33;7.20;;;;;;;;;;5032583;28;20432;-53
2021/10/10 05:43:05;;;;;;;23.08;7.47;;;;;;;;;;5033352;28;20155;-53
2021/10/10 05:45:32;;;;;;;18.92;6.88;;;;;;;;;;5032416;28;20045;-53
2021/10/10 05:47:58;;;;;;;15.75;7.03;;;;;;;;;;5032872;28;20047;-53
2021/10/10 05:50:24;;;;;;;14.32;6.35;;;;;;;;;;5033278;28;20029;-53
2021/10/10 05:52:50;;;;;;;12.98;6.85;;;;;;;;;;5032944;28;20124;-53
2021/10/10 05:55:17;;;;;;;16.95;6.60;;;;;;;;;;5032028;28;20025;-53
2021/10/10 05:57:50;;;;;;;21.75;7.32;;;;;;;;;;5032812;28;20025;-53
2021/10/10 06:00:17;;;;;;;11.93;6.05;;;;;;;;;;5033406;28;20026;-53
2021/10/10 06:02:43;;;;;;;18.25;6.70;;;;;;;;;;5030748;28;20440;-53
2021/10/10 06:05:10;;;;;;;14.77;7.00;;;;;;;;;;5031939;28;20026;-53
2021/10/10 06:07:36;;;;;;;16.73;6.57;;;;;;;;;;5032503;28;20752;-53
2021/10/10 06:10:04;;;;;;;15.52;6.50;;;;;;;;;;5033061;28;20159;-53
2021/10/10 06:12:31;;;;;;;13.45;5.97;;;;;;;;;;5032415;28;20038;-53
2021/10/10 06:14:58;;;;;;;17.55;6.63;;;;;;;;;;5032381;28;20024;-53
2021/10/10 06:17:24;;;;;;;12.55;6.38;;;;;;;;;;5034998;28;20030;-53
2021/10/10 06:19:50;;;;;;;12.07;6.38;;;;;;;;;;5036731;28;20101;-54
2021/10/10 06:22:16;;;;;;;15.73;6.25;;;;;;;;;;5036771;28;20395;-53
2021/10/10 06:24:42;;;;;;;15.27;6.32;;;;;;;;;;5036076;28;20025;-54
2021/10/10 06:27:08;;;;;;;16.13;7.32;;;;;;;;;;5036753;28;20018;-53
2021/10/10 06:29:34;;;;;;;13.63;5.95;;;;;;;;;;5036459;28;20513;-53
2021/10/10 06:32:00;;;;;;;12.38;5.53;;;;;;;;;;5036891;28;20029;-53
2021/10/10 06:34:26;;;;;;;19.33;6.82;;;;;;;;;;5035528;28;20032;-53
2021/10/10 06:36:52;;;;;;;12.95;6.22;;;;;;;;;;5036500;28;20108;-53
2021/10/10 06:39:18;;;;;;;15.63;7.15;;;;;;;;;;5036410;28;20091;-53
2021/10/10 06:41:46;;;;;;;13.00;7.05;;;;;;;;;;5036384;28;20018;-53
2021/10/10 06:44:12;;;;;;;17.65;6.80;;;;;;;;;;5035946;28;20363;-53
2021/10/10 06:46:38;;;;;;;13.18;6.93;;;;;;;;;;5036353;28;20387;-53
2021/10/10 06:49:04;;;;;;;16.95;6.70;;;;;;;;;;5035886;28;20026;-53
2021/10/10 06:51:30;;;;;;;15.23;6.32;;;;;;;;;;5036278;28;20025;-53
2021/10/10 06:53:56;;;;;;;20.42;8.05;;;;;;;;;;5035148;28;20037;-53
2021/10/10 06:56:22;;;;;;;12.82;6.22;;;;;;;;;;5036733;28;20026;-53
2021/10/10 06:58:50;;;;;;;15.38;6.93;;;;;;;;;;5035882;28;20022;-53
2021/10/10 07:01:16;;;;;;;14.88;6.20;;;;;;;;;;5033896;28;20056;-53
2021/10/10 07:03:42;;;;;;;15.43;6.97;;;;;;;;;;5035295;28;20033;-53
2021/10/10 07:06:08;;;;;;;20.98;7.55;;;;;;;;;;5036152;28;20414;-53
2021/10/10 07:08:34;;;;;;;12.52;6.43;;;;;;;;;;5035689;28;20034;-53
2021/10/10 07:11:00;;;;;;;12.15;6.03;;;;;;;;;;5035812;28;20100;-53
2021/10/10 07:13:26;;;;;;;15.38;7.22;;;;;;;;;;5035052;28;20037;-53
2021/10/10 07:15:54;;;;;;;17.48;7.70;;;;;;;;;;5035507;28;20021;-53
2021/10/10 07:18:27;;;;;;;21.77;8.00;;;;;;;;;;5035917;28;20041;-54
2021/10/10 07:25:54;;;;;;;17.63;7.30;;;;;;;;;;5035166;28;20029;-53
2021/10/10 07:28:20;;;;;;;11.85;6.47;;;;;;;;;;5034107;28;20041;-54
2021/10/10 07:30:48;;;;;;;16.35;7.15;;;;;;;;;;5035280;28;20033;-53
2021/10/10 07:33:14;;;;;;;16.95;7.18;;;;;;;;;;5035377;28;20345;-54
2021/10/10 07:35:40;;;;;;;22.05;8.50;;;;;;;;;;5034633;28;20435;-54
2021/10/10 07:38:06;;;;;;;23.15;9.35;;;;;;;;;;5035123;28;20029;-53
2021/10/10 07:40:32;;;;;;;33.08;9.15;;;;;;;;;;5035542;28;20101;-53
2021/10/10 07:42:58;;;;;;;17.02;7.82;;;;;;;;;;5034904;28;20033;-54
2021/10/10 07:45:25;;;;;;;23.20;8.85;;;;;;;;;;5034671;28;20470;-54
2021/10/10 07:47:52;;;;;;;26.38;8.30;;;;;;;;;;5034875;28;20119;-53
2021/10/10 07:50:19;;;;;;;25.40;9.75;;;;;;;;;;5035294;28;20029;-53
2021/10/10 07:52:46;;;;;;;30.05;11.73;;;;;;;;;;5034770;28;20057;-53
2021/10/10 07:55:12;;;;;;;17.95;9.07;;;;;;;;;;5034323;28;20284;-53
2021/10/10 07:57:39;;;;;;;27.27;10.75;;;;;;;;;;5034837;28;20063;-53
2021/10/10 08:00:06;;;;;;;28.83;10.90;;;;;;;;;;5035230;28;20060;-53
2021/10/10 08:02:32;;;;;;;25.65;10.05;;;;;;;;;;5033819;28;20025;-53
2021/10/10 08:04:59;;;;;;;28.38;11.43;;;;;;;;;;5034248;28;20029;-53
2021/10/10 08:07:25;;;;;;;28.55;11.93;;;;;;;;;;5034275;28;20173;-53
2021/10/10 08:09:51;;;;;;;24.30;11.60;;;;;;;;;;5035036;28;20030;-53
2021/10/10 08:12:17;;;;;;;27.17;11.48;;;;;;;;;;5034482;28;20043;-53
2021/10/10 08:14:42;;;;;;;26.40;11.40;;;;;;;;;;5033957;28;20036;-53
2021/10/10 08:17:08;;;;;;;29.83;12.85;;;;;;;;;;5034611;28;20021;-54
2021/10/10 08:19:34;;;;;;;31.33;13.00;;;;;;;;;;5034457;28;20341;-53
2021/10/10 08:22:00;;;;;;;23.95;11.20;;;;;;;;;;5034241;28;20025;-53
2021/10/10 08:24:29;;;;;;;24.20;11.68;;;;;;;;;;5033285;28;20328;-53
2021/10/10 08:26:55;;;;;;;25.70;12.32;;;;;;;;;;5034565;28;20039;-53
2021/10/10 08:29:21;;;;;;;33.00;13.27;;;;;;;;;;5034308;28;20026;-53
2021/10/10 08:31:47;;;;;;;30.13;12.63;;;;;;;;;;5034762;28;20029;-53
2021/10/10 08:34:13;;;;;;;29.38;11.98;;;;;;;;;;5031947;28;20034;-53
2021/10/10 08:36:39;;;;;;;28.83;12.73;;;;;;;;;;5045349;28;20108;-53
2021/10/10 08:39:05;;;;;;;24.02;11.57;;;;;;;;;;5053642;28;20092;-53
2021/10/10 08:41:34;;;;;;;30.75;11.38;;;;;;;;;;5053911;28;20025;-54
2021/10/10 08:44:04;;;;;;;29.70;10.88;;;;;;;;;;5036933;28;20057;-53
2021/10/10 08:46:34;;;;;;;20.05;8.90;;;;;;;;;;5032931;28;20024;-53
2021/10/10 08:49:00;;;;;;;26.05;9.70;;;;;;;;;;5033735;28;20474;-53
2021/10/10 08:51:27;;;;;;;25.08;10.82;;;;;;;;;;5034010;28;20026;-53
2021/10/10 08:53:53;;;;;;;23.45;10.70;;;;;;;;;;5033033;28;20120;-53
2021/10/10 08:56:19;;;;;;;21.02;9.35;;;;;;;;;;5033582;28;20412;-53
2021/10/10 08:58:46;;;;;;;18.67;9.00;;;;;;;;;;5033633;28;20109;-53
2021/10/10 09:01:16;;;;;;;17.70;8.38;;;;;;;;;;5032813;28;20029;-54
2021/10/10 09:03:53;;;;;;;18.85;8.52;;;;;;;;;;5033129;28;20033;-53
2021/10/10 09:06:19;;;;;;;24.15;9.75;;;;;;;;;;5033810;28;20048;-53
2021/10/10 09:08:45;;;;;;;17.25;8.45;;;;;;;;;;5033476;28;20434;-53
2021/10/10 09:11:11;;;;;;;15.32;6.95;;;;;;;;;;5033545;28;20026;-53
2021/10/10 09:13:38;;;;;;;15.73;7.22;;;;;;;;;;5032551;28;20044;-53
2021/10/10 09:16:06;;;;;;;19.27;8.35;;;;;;;;;;5033392;28;20021;-53
2021/10/10 09:18:38;;;;;;;18.88;9.05;;;;;;;;;;5033673;28;20025;-53
2021/10/10 09:21:13;;;;;;;23.92;8.15;;;;;;;;;;5033017;28;20352;-53
2021/10/10 09:23:39;;;;;;;17.77;7.75;;;;;;;;;;5032794;28;20021;-53
2021/10/10 09:26:06;;;;;;;20.48;8.90;;;;;;;;;;5033043;28;20461;-53
2021/10/10 09:28:33;;;;;;;15.00;7.18;;;;;;;;;;5033191;28;20110;-53
2021/10/10 09:31:03;;;;;;;21.83;9.30;;;;;;;;;;5033029;28;20030;-53
2021/10/10 09:33:36;;;;;;;13.15;6.32;;;;;;;;;;5032908;28;20033;-53
2021/10/10 09:36:03;;;;;;;13.45;6.13;;;;;;;;;;5032820;28;20045;-54
2021/10/10 09:38:29;;;;;;;13.85;6.63;;;;;;;;;;5032016;28;20483;-53
2021/10/10 09:44:03;;;;;;;14.70;6.60;;;;;;;;;;5032489;28;20030;-53
2021/10/10 09:46:30;;;;;;;16.02;7.80;;;;;;;;;;5033223;28;20029;-53
2021/10/10 09:48:56;;;;;;;15.18;6.68;;;;;;;;;;5032848;28;20025;-53
2021/10/10 09:51:29;;;;;;;12.07;5.82;;;;;;;;;;5032594;28;20025;-53
2021/10/10 09:54:00;;;;;;;15.32;7.13;;;;;;;;;;5032103;28;20124;-53
2021/10/10 09:56:26;;;;;;;21.05;7.10;;;;;;;;;;5033248;28;20018;-54
2021/10/10 09:58:52;;;;;;;16.60;7.40;;;;;;;;;;5032732;28;20025;-54
2021/10/10 10:01:19;;;;;;;14.30;5.32;;;;;;;;;;5031721;28;20026;-53
2021/10/10 10:04:14;;;;;;;14.57;6.05;;;;;;;;;;5032238;28;20171;-53
2021/10/10 10:06:43;;;;;;;14.75;4.70;;;;;;;;;;5010360;28;20034;-53
2021/10/10 10:09:11;;;;;;;14.50;6.95;;;;;;;;;;5010736;28;20511;-53
2021/10/10 10:11:38;;;;;;;13.48;6.38;;;;;;;;;;5010312;28;20041;-53
2021/10/10 10:14:05;;;;;;;12.23;5.25;;;;;;;;;;5009423;28;20033;-53
2021/10/10 10:16:31;;;;;;;14.63;6.03;;;;;;;;;;5010632;28;20088;-53
2021/10/10 10:19:01;;;;;;;13.35;6.82;;;;;;;;;;5010636;28;20026;-53
2021/10/10 10:21:28;;;;;;;18.20;7.22;;;;;;;;;;5025809;28;20115;-54
2021/10/10 10:23:57;;;;;;;10.00;5.07;;;;;;;;;;5029340;28;20037;-54
2021/10/10 10:26:23;;;;;;;24.67;10.35;;;;;;;;;;5030021;28;20239;-54
2021/10/10 10:28:50;;;;;;;25.85;8.38;;;;;;;;;;5029840;28;20040;-53
2021/10/10 10:31:16;;;;;;;11.90;5.45;;;;;;;;;;5029940;28;20037;-54
2021/10/10 10:33:42;;;;;;;13.70;6.32;;;;;;;;;;5029364;28;20152;-53
2021/10/10 10:36:08;;;;;;;13.30;5.13;;;;;;;;;;5030243;28;20188;-53
2021/10/10 10:38:48;;;;;;;12.93;5.43;;;;;;;;;;5029858;28;20141;-52
2021/10/10 10:41:32;;;;;;;12.63;5.78;;;;;;;;;;5029749;28;20025;-54
2021/10/10 10:43:58;;;;;;;12.38;6.03;;;;;;;;;;5031270;28;20371;-53
2021/10/10 10:46:24;;;;;;;10.27;5.65;;;;;;;;;;5032704;28;20029;-53
2021/10/10 10:48:51;;;;;;;13.85;5.55;;;;;;;;;;5032469;28;20022;-53
2021/10/10 10:51:23;;;;;;;15.25;6.07;;;;;;;;;;5032120;28;20090;-54
2021/10/10 10:53:49;;;;;;;12.63;6.07;;;;;;;;;;5031667;28;20037;-53
2021/10/10 10:56:29;;;;;;;13.20;5.80;;;;;;;;;;5032060;28;20103;-53
2021/10/10 10:58:58;;;;;;;11.63;4.95;;;;;;;;;;5032569;28;20352;-54
2021/10/10 11:01:24;;;;;;;9.93;5.15;;;;;;;;;;5031306;28;20583;-53
2021/10/10 11:03:50;;;;;;;13.18;5.85;;;;;;;;;;5034511;28;20087;-53
2021/10/10 11:06:16;;;;;;;10.27;4.70;;;;;;;;;;5035734;28;20030;-53
2021/10/10 11:08:43;;;;;;;12.13;5.93;;;;;;;;;;5035902;28;20124;-53
2021/10/10 11:11:23;;;;;;;15.70;6.18;;;;;;;;;;5035733;28;20017;-53
2021/10/10 11:13:55;;;;;;;9.68;4.95;;;;;;;;;;5034702;28;20423;-53
2021/10/10 11:16:33;;;;;;;10.48;5.50;;;;;;;;;;5035912;28;20029;-54
2021/10/10 11:19:06;;;;;;;13.27;5.43;;;;;;;;;;5035694;28;20340;-53
2021/10/10 11:21:36;;;;;;;11.70;5.43;;;;;;;;;;5035505;28;20033;-53
2021/10/10 11:24:04;;;;;;;10.68;4.60;;;;;;;;;;5035126;28;20018;-53
2021/10/10 11:26:32;;;;;;;12.77;5.75;;;;;;;;;;5035484;28;20095;-53
2021/10/10 11:28:59;;;;;;;10.77;5.28;;;;;;;;;;5035355;28;20022;-54
2021/10/10 11:31:29;;;;;;;12.55;5.35;;;;;;;;;;5035038;28;20049;-53
2021/10/10 11:33:57;;;;;;;12.43;6.55;;;;;;;;;;5034916;28;20044;-53
2021/10/10 11:36:37;;;;;;;11.25;5.28;;;;;;;;;;5035430;28;20029;-53
2021/10/10 11:39:05;;;;;;;15.35;5.32;;;;;;;;;;5035531;28;20451;-53
2021/10/10 11:41:31;;;;;;;10.93;5.18;;;;;;;;;;5035286;28;20052;-53
2021/10/10 11:44:01;;;;;;;9.38;5.10;;;;;;;;;;5034602;28;20049;-53
2021/10/10 11:46:37;;;;;;;9.70;4.72;;;;;;;;;;5034964;28;20017;-53
2021/10/10 11:49:03;;;;;;;11.25;5.32;;;;;;;;;;5035029;28;20462;-53
2021/10/10 11:51:39;;;;;;;13.38;5.05;;;;;;;;;;5034988;28;20076;-54
2021/10/10 11:54:05;;;;;;;11.23;5.40;;;;;;;;;;5034457;28;20039;-53
2021/10/10 11:56:32;;;;;;;12.75;5.60;;;;;;;;;;5035472;28;20029;-53
2021/10/10 11:59:10;;;;;;;14.65;4.97;;;;;;;;;;5034656;28;20057;-53
2021/10/10 12:01:37;;;;;;;9.88;5.00;;;;;;;;;;5033730;28;20026;-53
2021/10/10 12:04:03;;;;;;;13.13;6.45;;;;;;;;;;5034341;28;20026;-53
2021/10/10 12:06:29;;;;;;;9.57;5.63;;;;;;;;;;5034912;28;20025;-53
2021/10/10 12:09:04;;;;;;;8.75;4.32;;;;;;;;;;5034609;28;20359;-53
2021/10/10 12:11:30;;;;;;;15.70;6.00;;;;;;;;;;5034492;28;20025;-54
2021/10/10 12:13:56;;;;;;;12.80;6.10;;;;;;;;;;5033308;28;20037;-53
2021/10/10 12:16:23;;;;;;;12.18;5.90;;;;;;;;;;5034687;28;20014;-53
2021/10/10 12:18:49;;;;;;;9.77;5.43;;;;;;;;;;5034315;28;20474;-53
2021/10/10 12:21:33;;;;;;;12.80;5.45;;;;;;;;;;5034637;28;20025;-54
2021/10/10 12:24:04;;;;;;;10.02;4.90;;;;;;;;;;5033749;28;20029;-53
2021/10/10 12:26:43;;;;;;;14.70;6.18;;;;;;;;;;5034475;28;20375;-53
2021/10/10 12:29:28;;;;;;;13.05;5.22;;;;;;;;;;5034030;28;20038;-54
2021/10/10 12:31:55;;;;;;;10.35;5.00;;;;;;;;;;5034417;28;20029;-53
2021/10/10 12:34:30;;;;;;;9.45;5.18;;;;;;;;;;5033708;28;20040;-54
2021/10/10 12:36:56;;;;;;;11.07;4.88;;;;;;;;;;5034369;28;20030;-54
2021/10/10 12:39:39;;;;;;;14.20;5.13;;;;;;;;;;5034822;28;20025;-53
2021/10/10 12:42:05;;;;;;;13.23;4.82;;;;;;;;;;5034404;28;20064;-53
2021/10/10 12:44:31;;;;;;;7.68;4.50;;;;;;;;;;5033092;28;20026;-54
2021/10/10 12:46:57;;;;;;;13.00;5.05;;;;;;;;;;5033775;28;20061;-54
2021/10/10 12:49:28;;;;;;;9.57;5.50;;;;;;;;;;5034010;28;20456;-54
2021/10/10 12:51:54;;;;;;;;;;;;;;;;;;5034051;28;20030;-53
2021/10/10 12:54:22;;;;;;;10.82;4.53;;;;;;;;;;5033439;28;19919;-53
2021/10/10 12:56:57;;;;;;;10.00;4.68;;;;;;;;;;5033795;28;20088;-53
2021/10/10 12:59:23;;;;;;;14.70;5.15;;;;;;;;;;5033365;28;20029;-53
2021/10/10 13:01:49;;;;;;;13.07;5.07;;;;;;;;;;5032819;28;20022;-54
2021/10/10 13:04:16;;;;;;;9.02;4.50;;;;;;;;;;5033091;28;20029;-53
2021/10/10 13:06:46;;;;;;;9.82;4.82;;;;;;;;;;5033229;28;20538;-53
2021/10/10 13:09:12;;;;;;;;;;;;;;;;;;5034203;28;20406;-54
2021/10/10 13:11:38;;;;;;;12.25;4.90;;;;;;;;;;5033379;28;19905;-54
2021/10/10 13:14:04;;;;;;;9.90;4.90;;;;;;;;;;5033103;28;20030;-53
2021/10/10 13:16:31;;;;;;;9.90;5.32;;;;;;;;;;5033155;28;20407;-54
2021/10/10 13:18:57;;;;;;;16.17;5.57;;;;;;;;;;5033258;28;20428;-53
2021/10/10 13:21:23;;;;;;;11.52;4.45;;;;;;;;;;5033428;28;20028;-53
2021/10/10 13:23:49;;;;;;;12.60;5.60;;;;;;;;;;5032825;28;20040;-53
2021/10/10 13:26:15;;;;;;;13.43;4.80;;;;;;;;;;5032107;28;20028;-54
2021/10/10 13:28:41;;;;;;;11.45;5.18;;;;;;;;;;5033228;28;20034;-54
2021/10/10 13:31:09;;;;;;;6.93;4.18;;;;;;;;;;5033088;28;20129;-54
2021/10/10 13:33:36;;;;;;;9.20;4.72;;;;;;;;;;5032513;28;20041;-54
2021/10/10 13:36:03;;;;;;;10.32;3.75;;;;;;;;;;5033503;28;20022;-54
2021/10/10 13:38:30;;;;;;;10.02;4.50;;;;;;;;;;5033405;28;20184;-54
2021/10/10 13:40:56;;;;;;;16.15;5.15;;;;;;;;;;5033327;28;20086;-54
2021/10/10 13:43:23;;;;;;;13.23;4.72;;;;;;;;;;5032672;28;20128;-54
2021/10/10 13:45:59;;;;;;;10.00;4.18;;;;;;;;;;5032156;28;20049;-54
2021/10/10 13:48:28;;;;;;;12.13;3.83;;;;;;;;;;5033300;28;20029;-53
2021/10/10 13:50:54;;;;;;;9.95;5.13;;;;;;;;;;5033119;28;20076;-53
2021/10/10 13:53:20;;;;;;;12.57;5.68;;;;;;;;;;5032521;28;20359;-54
2021/10/10 13:55:46;;;;;;;15.25;5.38;;;;;;;;;;5032653;28;20060;-54
2021/10/10 13:58:12;;;;;;;11.25;5.05;;;;;;;;;;5032602;28;20041;-53
2021/10/10 14:00:39;;;;;;;12.75;5.40;;;;;;;;;;5032959;28;20036;-54
2021/10/10 14:03:05;;;;;;;10.30;4.88;;;;;;;;;;5031880;28;20029;-53
2021/10/10 14:05:32;;;;;;;9.43;5.05;;;;;;;;;;5032222;28;20040;-53
2021/10/10 14:07:58;;;;;;;10.00;4.95;;;;;;;;;;5032943;28;20103;-53
2021/10/10 14:10:24;;;;;;;17.52;4.60;;;;;;;;;;5032816;28;20018;-53
2021/10/10 14:12:50;;;;;;;14.80;5.05;;;;;;;;;;5032759;28;20036;-54
2021/10/10 14:15:16;;;;;;;13.27;5.00;;;;;;;;;;5032369;28;20030;-54
2021/10/10 14:17:42;;;;;;;12.75;4.18;;;;;;;;;;5032337;28;20074;-53
2021/10/10 14:20:08;;;;;;;10.80;4.00;;;;;;;;;;5032536;28;20025;-53
2021/10/10 14:22:34;;;;;;;10.55;4.50;;;;;;;;;;5033065;28;20022;-53
2021/10/10 14:25:00;;;;;;;7.75;3.70;;;;;;;;;;5031750;28;20036;-54
2021/10/10 14:27:26;;;;;;;12.02;5.05;;;;;;;;;;5032799;28;20347;-53
2021/10/10 14:29:52;;;;;;;11.77;4.88;;;;;;;;;;5032523;28;20128;-53
2021/10/10 14:32:18;;;;;;;14.40;5.00;;;;;;;;;;5032733;28;20025;-53
2021/10/10 14:34:44;;;;;;;15.13;4.53;;;;;;;;;;5029450;28;20029;-53
2021/10/10 14:37:10;;;;;;;8.65;4.18;;;;;;;;;;5042344;28;20049;-53
2021/10/10 14:39:37;;;;;;;8.82;4.90;;;;;;;;;;5056488;28;20029;-54
2021/10/10 14:42:08;;;;;;;16.58;5.03;;;;;;;;;;5056511;28;20025;-53